sensor_id;sensor_type;location;lat;lon;timestamp;pressure;altitude;pressure_sealevel;temperature;humidity
54308;BME280;40208;39.778;2.710;2023-04-20T00:02:26;101154.84;;;14.07;100.00
54308;BME280;40208;39.778;2.710;2023-04-20T00:05:10;101120.03;;;13.93;100.00
54308;BME280;40208;39.778;2.710;2023-04-20T00:07:56;101039.47;;;13.53;100.00
54308;BME280;40208;39.778;2.710;2023-04-20T00:10:54;101138.28;;;14.00;100.00
54308;BME280;40208;39.778;2.710;2023-04-20T00:13:39;101143.38;;;14.05;100.00
54308;BME280;40208;39.778;2.710;2023-04-20T00:16:24;101107.53;;;13.93;100.00
54308;BME280;40208;39.778;2.710;2023-04-20T00:19:09;101015.84;;;13.45;100.00
54308;BME280;40208;39.778;2.710;2023-04-20T00:21:54;101067.47;;;13.77;100.00
54308;BME280;40208;39.778;2.710;2023-04-20T00:24:39;101099.84;;;13.87;100.00
54308;BME280;40208;39.778;2.710;2023-04-20T00:27:24;101075.75;;;13.89;100.00
54308;BME280;40208;39.778;2.710;2023-04-20T00:30:09;101007.47;;;13.53;100.00
54308;BME280;40208;39.778;2.710;2023-04-20T00:32:54;100991.16;;;13.42;100.00
54308;BME280;40208;39.778;2.710;2023-04-20T00:35:39;101046.91;;;13.79;100.00
54308;BME280;40208;39.778;2.710;2023-04-20T00:38:24;101069.03;;;13.97;100.00
54308;BME280;40208;39.778;2.710;2023-04-20T00:41:09;101083.78;;;14.05;100.00
54308;BME280;40208;39.778;2.710;2023-04-20T00:43:54;100954.28;;;13.34;100.00
54308;BME280;40208;39.778;2.710;2023-04-20T00:46:39;101078.03;;;14.12;100.00
54308;BME280;40208;39.778;2.710;2023-04-20T00:49:29;101097.06;;;14.22;100.00
54308;BME280;40208;39.778;2.710;2023-04-20T00:52:15;100951.09;;;13.43;100.00
54308;BME280;40208;39.778;2.710;2023-04-20T00:55:00;101017.38;;;13.67;100.00
54308;BME280;40208;39.778;2.710;2023-04-20T00:57:45;101042.84;;;13.72;100.00
54308;BME280;40208;39.778;2.710;2023-04-20T01:00:31;101029.41;;;13.58;100.00
54308;BME280;40208;39.778;2.710;2023-04-20T01:03:16;100954.13;;;13.20;100.00
54308;BME280;40208;39.778;2.710;2023-04-20T01:06:01;101005.72;;;13.52;100.00
54308;BME280;40208;39.778;2.710;2023-04-20T01:08:48;101013.47;;;13.56;100.00
54308;BME280;40208;39.778;2.710;2023-04-20T01:11:34;100884.19;;;12.81;100.00
54308;BME280;40208;39.778;2.710;2023-04-20T01:14:19;100872.13;;;12.74;100.00
54308;BME280;40208;39.778;2.710;2023-04-20T01:17:04;101005.06;;;13.64;100.00
54308;BME280;40208;39.778;2.710;2023-04-20T01:19:49;101030.19;;;13.76;100.00
54308;BME280;40208;39.778;2.710;2023-04-20T01:22:48;100987.91;;;13.52;100.00
54308;BME280;40208;39.778;2.710;2023-04-20T01:25:32;101022.38;;;13.73;100.00
54308;BME280;40208;39.778;2.710;2023-04-20T01:28:17;101044.84;;;13.85;100.00
54308;BME280;40208;39.778;2.710;2023-04-20T01:31:03;100799.97;;;12.45;100.00
54308;BME280;40208;39.778;2.710;2023-04-20T01:33:48;101034.13;;;13.69;100.00
54308;BME280;40208;39.778;2.710;2023-04-20T01:36:33;100825.28;;;12.54;100.00
54308;BME280;40208;39.778;2.710;2023-04-20T01:39:18;100905.25;;;13.03;100.00
54308;BME280;40208;39.778;2.710;2023-04-20T01:42:03;100911.91;;;12.94;100.00
54308;BME280;40208;39.778;2.710;2023-04-20T01:44:49;100987.31;;;13.47;100.00
54308;BME280;40208;39.778;2.710;2023-04-20T01:47:36;100918.75;;;12.83;100.00
54308;BME280;40208;39.778;2.710;2023-04-20T01:50:21;100946.78;;;12.90;100.00
54308;BME280;40208;39.778;2.710;2023-04-20T01:53:05;100923.38;;;12.79;100.00
54308;BME280;40208;39.778;2.710;2023-04-20T01:55:50;100848.13;;;12.41;100.00
54308;BME280;40208;39.778;2.710;2023-04-20T01:58:35;100911.78;;;12.80;100.00
54308;BME280;40208;39.778;2.710;2023-04-20T02:01:20;100906.63;;;12.77;100.00
54308;BME280;40208;39.778;2.710;2023-04-20T02:04:04;100897.22;;;12.70;100.00
54308;BME280;40208;39.778;2.710;2023-04-20T02:06:49;100951.47;;;13.02;100.00
54308;BME280;40208;39.778;2.710;2023-04-20T02:09:34;100906.25;;;12.67;100.00
54308;BME280;40208;39.778;2.710;2023-04-20T02:12:19;101003.88;;;13.36;100.00
54308;BME280;40208;39.778;2.710;2023-04-20T02:15:05;100857.63;;;12.46;100.00
54308;BME280;40208;39.778;2.710;2023-04-20T02:17:50;100851.75;;;12.40;100.00
54308;BME280;40208;39.778;2.710;2023-04-20T02:20:35;100981.78;;;13.17;100.00
54308;BME280;40208;39.778;2.710;2023-04-20T02:23:20;100918.53;;;12.52;100.00
54308;BME280;40208;39.778;2.710;2023-04-20T02:26:04;101000.06;;;12.72;100.00
54308;BME280;40208;39.778;2.710;2023-04-20T02:28:49;100887.84;;;12.11;100.00
54308;BME280;40208;39.778;2.710;2023-04-20T02:31:34;100984.88;;;12.75;100.00
54308;BME280;40208;39.778;2.710;2023-04-20T02:34:19;100886.19;;;12.25;100.00
54308;BME280;40208;39.778;2.710;2023-04-20T02:37:04;100901.94;;;12.30;100.00
54308;BME280;40208;39.778;2.710;2023-04-20T02:39:49;100845.28;;;12.11;100.00
54308;BME280;40208;39.778;2.710;2023-04-20T02:42:33;100840.00;;;11.92;100.00
54308;BME280;40208;39.778;2.710;2023-04-20T02:45:18;100995.44;;;12.76;100.00
54308;BME280;40208;39.778;2.710;2023-04-20T02:48:03;100941.84;;;12.30;100.00
54308;BME280;40208;39.778;2.710;2023-04-20T02:50:48;100913.44;;;12.13;100.00
54308;BME280;40208;39.778;2.710;2023-04-20T02:53:33;100888.91;;;11.89;100.00
54308;BME280;40208;39.778;2.710;2023-04-20T02:56:18;100981.78;;;12.47;100.00
54308;BME280;40208;39.778;2.710;2023-04-20T02:59:03;100979.81;;;12.34;100.00
54308;BME280;40208;39.778;2.710;2023-04-20T03:01:47;100810.28;;;11.28;100.00
54308;BME280;40208;39.778;2.710;2023-04-20T03:04:32;100887.03;;;11.53;100.00
54308;BME280;40208;39.778;2.710;2023-04-20T03:07:17;100967.06;;;12.04;100.00
54308;BME280;40208;39.778;2.710;2023-04-20T03:10:02;100923.31;;;11.92;100.00
54308;BME280;40208;39.778;2.710;2023-04-20T03:12:47;100961.09;;;12.18;100.00
54308;BME280;40208;39.778;2.710;2023-04-20T03:15:32;100874.06;;;11.83;100.00
54308;BME280;40208;39.778;2.710;2023-04-20T03:18:17;100925.16;;;12.26;100.00
54308;BME280;40208;39.778;2.710;2023-04-20T03:21:02;100826.78;;;11.71;100.00
54308;BME280;40208;39.778;2.710;2023-04-20T03:23:46;100935.84;;;12.44;100.00
54308;BME280;40208;39.778;2.710;2023-04-20T03:26:31;100869.50;;;11.87;100.00
54308;BME280;40208;39.778;2.710;2023-04-20T03:29:16;100803.91;;;11.50;100.00
54308;BME280;40208;39.778;2.710;2023-04-20T03:32:01;100840.03;;;11.73;100.00
54308;BME280;40208;39.778;2.710;2023-04-20T03:34:46;100811.13;;;11.65;100.00
54308;BME280;40208;39.778;2.710;2023-04-20T03:37:31;100568.31;;;10.24;100.00
54308;BME280;40208;39.778;2.710;2023-04-20T03:40:16;100889.09;;;12.21;100.00
54308;BME280;40208;39.778;2.710;2023-04-20T03:43:00;100840.00;;;11.92;100.00
54308;BME280;40208;39.778;2.710;2023-04-20T03:45:46;100943.03;;;12.59;100.00
54308;BME280;40208;39.778;2.710;2023-04-20T03:48:31;100923.00;;;12.52;100.00
54308;BME280;40208;39.778;2.710;2023-04-20T03:51:16;100834.53;;;11.95;100.00
54308;BME280;40208;39.778;2.710;2023-04-20T03:54:01;100883.38;;;12.28;100.00
54308;BME280;40208;39.778;2.710;2023-04-20T03:56:46;100838.59;;;12.02;100.00
54308;BME280;40208;39.778;2.710;2023-04-20T03:59:33;100749.69;;;11.54;100.00
54308;BME280;40208;39.778;2.710;2023-04-20T04:02:17;100878.38;;;12.22;100.00
54308;BME280;40208;39.778;2.710;2023-04-20T04:05:02;100902.09;;;12.44;100.00
54308;BME280;40208;39.778;2.710;2023-04-20T04:07:47;100834.13;;;12.02;100.00
54308;BME280;40208;39.778;2.710;2023-04-20T04:10:32;100937.72;;;12.59;100.00
54308;BME280;40208;39.778;2.710;2023-04-20T04:13:17;100848.28;;;12.03;100.00
54308;BME280;40208;39.778;2.710;2023-04-20T04:16:02;100764.66;;;11.37;100.00
54308;BME280;40208;39.778;2.710;2023-04-20T04:18:47;100872.56;;;11.97;100.00
54308;BME280;40208;39.778;2.710;2023-04-20T04:21:33;100837.72;;;11.65;100.00
54308;BME280;40208;39.778;2.710;2023-04-20T04:24:17;100914.44;;;12.11;100.00
54308;BME280;40208;39.778;2.710;2023-04-20T04:27:02;100931.72;;;12.19;100.00
54308;BME280;40208;39.778;2.710;2023-04-20T04:29:48;100926.28;;;12.22;100.00
54308;BME280;40208;39.778;2.710;2023-04-20T04:32:33;100672.00;;;10.76;100.00
54308;BME280;40208;39.778;2.710;2023-04-20T04:35:19;100740.38;;;11.09;100.00
54308;BME280;40208;39.778;2.710;2023-04-20T04:38:04;100847.81;;;11.58;100.00
54308;BME280;40208;39.778;2.710;2023-04-20T04:40:49;100866.47;;;11.57;100.00
54308;BME280;40208;39.778;2.710;2023-04-20T04:43:35;100877.75;;;11.62;100.00
54308;BME280;40208;39.778;2.710;2023-04-20T04:46:20;100799.72;;;11.27;100.00
54308;BME280;40208;39.778;2.710;2023-04-20T04:49:06;100831.72;;;11.42;100.00
54308;BME280;40208;39.778;2.710;2023-04-20T04:51:51;100911.94;;;11.88;100.00
54308;BME280;40208;39.778;2.710;2023-04-20T04:54:36;100800.03;;;11.20;100.00
54308;BME280;40208;39.778;2.710;2023-04-20T04:57:21;100789.25;;;11.04;100.00
54308;BME280;40208;39.778;2.710;2023-04-20T05:00:06;100728.44;;;10.60;100.00
54308;BME280;40208;39.778;2.710;2023-04-20T05:02:53;100806.59;;;10.93;100.00
54308;BME280;40208;39.778;2.710;2023-04-20T05:05:37;100847.81;;;11.01;100.00
54308;BME280;40208;39.778;2.710;2023-04-20T05:08:22;100714.00;;;10.28;100.00
54308;BME280;40208;39.778;2.710;2023-04-20T05:11:09;100922.47;;;11.54;100.00
54308;BME280;40208;39.778;2.710;2023-04-20T05:13:54;100866.06;;;11.28;100.00
54308;BME280;40208;39.778;2.710;2023-04-20T05:16:39;100784.94;;;10.83;100.00
54308;BME280;40208;39.778;2.710;2023-04-20T05:19:24;100824.19;;;11.14;100.00
54308;BME280;40208;39.778;2.710;2023-04-20T05:22:09;100904.97;;;11.67;100.00
54308;BME280;40208;39.778;2.710;2023-04-20T05:24:53;100934.09;;;11.89;100.00
54308;BME280;40208;39.778;2.710;2023-04-20T05:27:38;100880.25;;;11.65;100.00
54308;BME280;40208;39.778;2.710;2023-04-20T05:30:23;100871.22;;;11.31;100.00
54308;BME280;40208;39.778;2.710;2023-04-20T05:33:08;100711.69;;;10.21;100.00
54308;BME280;40208;39.778;2.710;2023-04-20T05:35:56;100890.09;;;11.06;100.00
54308;BME280;40208;39.778;2.710;2023-04-20T05:38:41;100885.88;;;11.02;100.00
54308;BME280;40208;39.778;2.710;2023-04-20T05:41:25;100778.03;;;10.19;100.00
54308;BME280;40208;39.778;2.710;2023-04-20T05:44:11;100870.03;;;10.80;100.00
54308;BME280;40208;39.778;2.710;2023-04-20T05:46:55;100771.88;;;10.18;100.00
54308;BME280;40208;39.778;2.710;2023-04-20T05:49:40;100692.88;;;9.65;100.00
54308;BME280;40208;39.778;2.710;2023-04-20T05:52:25;100832.28;;;10.53;100.00
54308;BME280;40208;39.778;2.710;2023-04-20T05:55:10;100808.91;;;10.42;100.00
54308;BME280;40208;39.778;2.710;2023-04-20T05:57:55;100939.44;;;11.12;100.00
54308;BME280;40208;39.778;2.710;2023-04-20T06:00:40;100903.31;;;11.08;100.00
54308;BME280;40208;39.778;2.710;2023-04-20T06:03:25;100787.41;;;10.28;100.00
54308;BME280;40208;39.778;2.710;2023-04-20T06:06:09;100860.09;;;10.65;100.00
54308;BME280;40208;39.778;2.710;2023-04-20T06:08:54;100925.56;;;11.05;100.00
54308;BME280;40208;39.778;2.710;2023-04-20T06:11:41;100916.03;;;11.01;100.00
54308;BME280;40208;39.778;2.710;2023-04-20T06:14:26;100946.44;;;11.13;100.00
54308;BME280;40208;39.778;2.710;2023-04-20T06:17:11;100925.63;;;11.03;100.00
54308;BME280;40208;39.778;2.710;2023-04-20T06:19:56;100726.00;;;9.96;100.00
54308;BME280;40208;39.778;2.710;2023-04-20T06:22:42;100810.16;;;10.54;100.00
54308;BME280;40208;39.778;2.710;2023-04-20T06:25:28;100766.78;;;10.34;100.00
54308;BME280;40208;39.778;2.710;2023-04-20T06:28:12;100839.09;;;10.79;100.00
54308;BME280;40208;39.778;2.710;2023-04-20T06:30:57;100910.06;;;11.34;100.00
54308;BME280;40208;39.778;2.710;2023-04-20T06:33:42;100850.59;;;10.98;100.00
54308;BME280;40208;39.778;2.710;2023-04-20T06:36:27;100817.50;;;10.87;100.00
54308;BME280;40208;39.778;2.710;2023-04-20T06:39:12;100912.75;;;11.53;100.00
54308;BME280;40208;39.778;2.710;2023-04-20T06:41:57;100765.97;;;10.72;100.00
54308;BME280;40208;39.778;2.710;2023-04-20T06:44:43;100820.75;;;11.12;100.00
54308;BME280;40208;39.778;2.710;2023-04-20T06:47:27;100808.84;;;11.21;100.00
54308;BME280;40208;39.778;2.710;2023-04-20T06:50:15;100909.16;;;11.92;100.00
54308;BME280;40208;39.778;2.710;2023-04-20T06:53:02;100906.81;;;12.03;100.00
54308;BME280;40208;39.778;2.710;2023-04-20T06:55:47;100869.75;;;11.81;100.00
54308;BME280;40208;39.778;2.710;2023-04-20T06:58:32;100862.06;;;11.94;100.00
54308;BME280;40208;39.778;2.710;2023-04-20T07:01:17;100758.56;;;11.35;100.00
54308;BME280;40208;39.778;2.710;2023-04-20T07:04:02;100881.34;;;12.16;100.00
54308;BME280;40208;39.778;2.710;2023-04-20T07:06:47;100904.13;;;12.39;100.00
54308;BME280;40208;39.778;2.710;2023-04-20T07:09:32;100780.69;;;11.72;100.00
54308;BME280;40208;39.778;2.710;2023-04-20T07:12:17;100897.31;;;12.51;100.00
54308;BME280;40208;39.778;2.710;2023-04-20T07:15:03;100921.88;;;12.73;100.00
54308;BME280;40208;39.778;2.710;2023-04-20T07:17:48;100798.53;;;12.05;100.00
54308;BME280;40208;39.778;2.710;2023-04-20T07:20:33;100868.72;;;12.55;100.00
54308;BME280;40208;39.778;2.710;2023-04-20T07:23:18;100856.97;;;12.59;100.00
54308;BME280;40208;39.778;2.710;2023-04-20T07:26:03;100697.31;;;11.73;100.00
54308;BME280;40208;39.778;2.710;2023-04-20T07:28:48;100821.81;;;12.52;100.00
54308;BME280;40208;39.778;2.710;2023-04-20T07:31:33;100876.25;;;12.97;100.00
54308;BME280;40208;39.778;2.710;2023-04-20T07:34:17;100877.31;;;13.10;100.00
54308;BME280;40208;39.778;2.710;2023-04-20T07:37:02;100736.53;;;12.38;100.00
54308;BME280;40208;39.778;2.710;2023-04-20T07:39:47;100782.13;;;12.81;100.00
54308;BME280;40208;39.778;2.710;2023-04-20T07:42:33;100686.38;;;12.30;100.00
54308;BME280;40208;39.778;2.710;2023-04-20T07:45:18;100815.44;;;13.05;100.00
54308;BME280;40208;39.778;2.710;2023-04-20T07:48:05;100738.84;;;12.77;100.00
54308;BME280;40208;39.778;2.710;2023-04-20T07:50:49;100686.59;;;12.59;100.00
54308;BME280;40208;39.778;2.710;2023-04-20T07:53:34;100894.47;;;14.02;100.00
54308;BME280;40208;39.778;2.710;2023-04-20T07:56:19;100867.47;;;13.92;100.00
54308;BME280;40208;39.778;2.710;2023-04-20T07:59:04;100866.84;;;14.03;100.00
54308;BME280;40208;39.778;2.710;2023-04-20T08:01:49;100640.72;;;12.85;100.00
54308;BME280;40208;39.778;2.710;2023-04-20T08:04:37;100775.00;;;13.76;100.00
54308;BME280;40208;39.778;2.710;2023-04-20T08:07:22;100791.94;;;14.06;100.00
54308;BME280;40208;39.778;2.710;2023-04-20T08:10:07;100858.50;;;14.53;100.00
54308;BME280;40208;39.778;2.710;2023-04-20T08:12:52;100841.31;;;14.43;100.00
54308;BME280;40208;39.778;2.710;2023-04-20T08:15:37;100767.38;;;14.15;100.00
54308;BME280;40208;39.778;2.710;2023-04-20T08:18:22;100840.06;;;14.65;100.00
54308;BME280;40208;39.778;2.710;2023-04-20T08:21:06;100803.03;;;14.58;100.00
54308;BME280;40208;39.778;2.710;2023-04-20T08:23:51;100856.94;;;14.94;100.00
54308;BME280;40208;39.778;2.710;2023-04-20T08:26:37;100798.16;;;14.65;100.00
54308;BME280;40208;39.778;2.710;2023-04-20T08:29:22;100830.91;;;14.83;100.00
54308;BME280;40208;39.778;2.710;2023-04-20T08:32:06;100887.38;;;15.34;100.00
54308;BME280;40208;39.778;2.710;2023-04-20T08:34:52;100862.06;;;15.25;100.00
54308;BME280;40208;39.778;2.710;2023-04-20T08:37:37;100765.53;;;14.89;100.00
54308;BME280;40208;39.778;2.710;2023-04-20T08:40:22;100855.44;;;15.60;100.00
54308;BME280;40208;39.778;2.710;2023-04-20T08:43:08;100816.19;;;15.46;100.00
54308;BME280;40208;39.778;2.710;2023-04-20T08:45:57;100795.47;;;15.50;100.00
54308;BME280;40208;39.778;2.710;2023-04-20T08:48:45;100878.03;;;16.10;100.00
54308;BME280;40208;39.778;2.710;2023-04-20T08:51:30;100863.81;;;16.22;100.00
54308;BME280;40208;39.778;2.710;2023-04-20T08:54:15;100888.28;;;16.43;100.00
54308;BME280;40208;39.778;2.710;2023-04-20T08:57:00;100839.09;;;16.31;100.00
54308;BME280;40208;39.778;2.710;2023-04-20T08:59:45;100879.75;;;16.64;100.00
54308;BME280;40208;39.778;2.710;2023-04-20T09:02:30;100892.41;;;16.74;100.00
54308;BME280;40208;39.778;2.710;2023-04-20T09:05:15;100734.06;;;15.88;100.00
54308;BME280;40208;39.778;2.710;2023-04-20T09:08:08;100836.66;;;16.67;100.00
54308;BME280;40208;39.778;2.710;2023-04-20T09:10:53;100794.31;;;16.46;100.00
54308;BME280;40208;39.778;2.710;2023-04-20T09:13:38;100901.03;;;17.18;100.00
54308;BME280;40208;39.778;2.710;2023-04-20T09:16:23;100903.47;;;17.21;100.00
54308;BME280;40208;39.778;2.710;2023-04-20T09:19:08;100879.13;;;17.11;100.00
54308;BME280;40208;39.778;2.710;2023-04-20T09:21:54;100826.06;;;16.78;100.00
54308;BME280;40208;39.778;2.710;2023-04-20T09:24:40;100863.38;;;17.07;100.00
54308;BME280;40208;39.778;2.710;2023-04-20T09:27:26;100844.59;;;16.94;100.00
54308;BME280;40208;39.778;2.710;2023-04-20T09:30:11;100801.59;;;16.70;100.00
54308;BME280;40208;39.778;2.710;2023-04-20T09:33:03;100800.84;;;16.68;100.00
54308;BME280;40208;39.778;2.710;2023-04-20T09:35:48;100905.03;;;17.36;100.00
54308;BME280;40208;39.778;2.710;2023-04-20T09:38:33;100757.22;;;16.53;100.00
54308;BME280;40208;39.778;2.710;2023-04-20T09:41:18;100842.97;;;17.17;100.00
54308;BME280;40208;39.778;2.710;2023-04-20T09:44:03;100911.22;;;17.63;100.00
54308;BME280;40208;39.778;2.710;2023-04-20T09:46:48;100909.94;;;17.68;100.00
54308;BME280;40208;39.778;2.710;2023-04-20T09:49:33;100872.03;;;17.60;100.00
54308;BME280;40208;39.778;2.710;2023-04-20T09:52:18;100892.41;;;17.75;100.00
54308;BME280;40208;39.778;2.710;2023-04-20T09:55:04;100903.88;;;17.90;100.00
54308;BME280;40208;39.778;2.710;2023-04-20T09:57:51;100848.28;;;17.67;100.00
54308;BME280;40208;39.778;2.710;2023-04-20T10:00:37;100833.28;;;17.64;100.00
54308;BME280;40208;39.778;2.710;2023-04-20T10:03:22;100851.69;;;17.82;100.00
54308;BME280;40208;39.778;2.710;2023-04-20T10:06:23;100784.22;;;17.38;100.00
54308;BME280;40208;39.778;2.710;2023-04-20T10:09:22;100746.72;;;17.25;100.00
54308;BME280;40208;39.778;2.710;2023-04-20T10:12:08;100757.13;;;17.30;100.00
54308;BME280;40208;39.778;2.710;2023-04-20T10:14:56;100763.59;;;17.38;100.00
54308;BME280;40208;39.778;2.710;2023-04-20T10:17:41;100823.66;;;17.86;100.00
54308;BME280;40208;39.778;2.710;2023-04-20T10:20:27;100775.25;;;17.50;100.00
54308;BME280;40208;39.778;2.710;2023-04-20T10:23:12;100749.25;;;17.40;100.00
54308;BME280;40208;39.778;2.710;2023-04-20T10:25:59;100730.56;;;17.38;100.00
54308;BME280;40208;39.778;2.710;2023-04-20T10:28:48;100639.50;;;16.88;100.00
54308;BME280;40208;39.778;2.710;2023-04-20T10:31:42;100768.81;;;17.53;100.00
54308;BME280;40208;39.778;2.710;2023-04-20T10:34:36;100874.06;;;18.17;100.00
54308;BME280;40208;39.778;2.710;2023-04-20T10:37:22;100838.66;;;18.12;100.00
54308;BME280;40208;39.778;2.710;2023-04-20T10:40:07;100612.31;;;16.69;100.00
54308;BME280;40208;39.778;2.710;2023-04-20T10:42:53;100875.09;;;18.28;100.00
54308;BME280;40208;39.778;2.710;2023-04-20T10:45:38;100789.03;;;17.94;100.00
54308;BME280;40208;39.778;2.710;2023-04-20T10:48:23;100712.69;;;17.50;100.00
54308;BME280;40208;39.778;2.710;2023-04-20T10:51:09;100644.69;;;17.03;100.00
54308;BME280;40208;39.778;2.710;2023-04-20T10:56:49;100850.63;;;18.19;100.00
54308;BME280;40208;39.778;2.710;2023-04-20T10:59:37;100658.84;;;17.05;100.00
54308;BME280;40208;39.778;2.710;2023-04-20T11:02:23;100734.56;;;17.56;100.00
54308;BME280;40208;39.778;2.710;2023-04-20T11:05:11;100808.22;;;18.00;100.00
54308;BME280;40208;39.778;2.710;2023-04-20T11:07:59;100820.34;;;18.17;100.00
54308;BME280;40208;39.778;2.710;2023-04-20T11:10:47;100723.69;;;17.58;100.00
54308;BME280;40208;39.778;2.710;2023-04-20T11:13:32;100798.25;;;18.14;100.00
54308;BME280;40208;39.778;2.710;2023-04-20T11:16:18;100821.91;;;18.44;100.00
54308;BME280;40208;39.778;2.710;2023-04-20T11:19:04;100798.19;;;18.38;100.00
54308;BME280;40208;39.778;2.710;2023-04-20T11:21:49;100808.94;;;18.38;100.00
54308;BME280;40208;39.778;2.710;2023-04-20T11:24:34;100812.59;;;18.48;100.00
54308;BME280;40208;39.778;2.710;2023-04-20T11:27:21;100743.69;;;18.25;100.00
54308;BME280;40208;39.778;2.710;2023-04-20T11:30:06;100670.50;;;17.98;100.00
54308;BME280;40208;39.778;2.710;2023-04-20T11:32:53;100740.06;;;18.37;100.00
54308;BME280;40208;39.778;2.710;2023-04-20T11:35:42;100804.00;;;18.78;100.00
54308;BME280;40208;39.778;2.710;2023-04-20T11:38:32;100630.63;;;17.94;100.00
54308;BME280;40208;39.778;2.710;2023-04-20T11:41:17;100784.09;;;18.92;100.00
54308;BME280;40208;39.778;2.710;2023-04-20T11:44:06;100764.78;;;18.87;100.00
54308;BME280;40208;39.778;2.710;2023-04-20T11:46:53;100712.91;;;18.62;100.00
54308;BME280;40208;39.778;2.710;2023-04-20T11:49:37;100698.16;;;18.68;100.00
54308;BME280;40208;39.778;2.710;2023-04-20T11:52:22;100698.38;;;18.99;100.00
54308;BME280;40208;39.778;2.710;2023-04-20T11:55:07;100745.03;;;19.53;100.00
54308;BME280;40208;39.778;2.710;2023-04-20T11:57:52;100751.66;;;19.92;100.00
54308;BME280;40208;39.778;2.710;2023-04-20T12:00:37;100673.56;;;19.60;100.00
54308;BME280;40208;39.778;2.710;2023-04-20T12:03:21;100629.84;;;19.67;93.38
54308;BME280;40208;39.778;2.710;2023-04-20T12:06:06;100650.41;;;19.89;95.62
54308;BME280;40208;39.778;2.710;2023-04-20T12:08:58;100718.78;;;20.50;90.45
54308;BME280;40208;39.778;2.710;2023-04-20T12:11:43;100720.19;;;20.65;87.01
54308;BME280;40208;39.778;2.710;2023-04-20T12:14:28;100556.22;;;19.78;85.99
54308;BME280;40208;39.778;2.710;2023-04-20T12:17:13;100644.91;;;20.52;82.45
54308;BME280;40208;39.778;2.710;2023-04-20T12:19:58;100600.72;;;20.44;80.35
54308;BME280;40208;39.778;2.710;2023-04-20T12:22:42;100630.06;;;20.78;77.46
54308;BME280;40208;39.778;2.710;2023-04-20T12:25:34;100667.59;;;21.00;75.75
54308;BME280;40208;39.778;2.710;2023-04-20T12:28:25;100674.28;;;21.15;78.60
54308;BME280;40208;39.778;2.710;2023-04-20T12:31:16;100575.97;;;20.69;72.17
54308;BME280;40208;39.778;2.710;2023-04-20T12:34:06;100732.47;;;21.68;71.40
54308;BME280;40208;39.778;2.710;2023-04-20T12:36:51;100705.03;;;21.63;71.41
54308;BME280;40208;39.778;2.710;2023-04-20T12:39:36;100657.81;;;21.28;73.49
54308;BME280;40208;39.778;2.710;2023-04-20T12:42:21;100663.19;;;21.28;70.06
54308;BME280;40208;39.778;2.710;2023-04-20T12:45:06;100598.59;;;20.98;72.76
54308;BME280;40208;39.778;2.710;2023-04-20T12:47:51;100704.47;;;21.50;78.74
54308;BME280;40208;39.778;2.710;2023-04-20T12:50:36;100688.22;;;21.30;83.07
54308;BME280;40208;39.778;2.710;2023-04-20T12:53:21;100687.66;;;21.27;85.48
54308;BME280;40208;39.778;2.710;2023-04-20T12:56:06;100544.50;;;20.29;87.30
54308;BME280;40208;39.778;2.710;2023-04-20T12:58:51;100596.94;;;20.56;89.32
54308;BME280;40208;39.778;2.710;2023-04-20T13:01:36;100639.41;;;20.64;91.77
54308;BME280;40208;39.778;2.710;2023-04-20T13:04:21;100553.78;;;20.06;93.32
54308;BME280;40208;39.778;2.710;2023-04-20T13:07:05;100655.59;;;20.64;95.04
54308;BME280;40208;39.778;2.710;2023-04-20T13:09:50;100644.66;;;20.65;95.02
54308;BME280;40208;39.778;2.710;2023-04-20T13:12:35;100472.50;;;19.60;95.55
54308;BME280;40208;39.778;2.710;2023-04-20T13:15:20;100534.47;;;19.91;96.11
54308;BME280;40208;39.778;2.710;2023-04-20T13:18:05;100606.50;;;20.29;95.89
54308;BME280;40208;39.778;2.710;2023-04-20T13:20:49;100410.97;;;19.15;98.94
54308;BME280;40208;39.778;2.710;2023-04-20T13:23:35;100609.19;;;20.29;98.80
54308;BME280;40208;39.778;2.710;2023-04-20T13:26:21;100635.34;;;20.39;97.83
54308;BME280;40208;39.778;2.710;2023-04-20T13:29:06;100686.84;;;20.76;97.66
54308;BME280;40208;39.778;2.710;2023-04-20T13:31:51;100678.47;;;20.69;100.00
54308;BME280;40208;39.778;2.710;2023-04-20T13:34:36;100615.19;;;20.43;100.00
54308;BME280;40208;39.778;2.710;2023-04-20T13:37:21;100547.72;;;20.13;100.00
54308;BME280;40208;39.778;2.710;2023-04-20T13:40:07;100618.41;;;20.67;100.00
54308;BME280;40208;39.778;2.710;2023-04-20T13:42:52;100656.34;;;20.95;100.00
54308;BME280;40208;39.778;2.710;2023-04-20T13:45:37;100619.56;;;20.74;100.00
54308;BME280;40208;39.778;2.710;2023-04-20T13:48:21;100620.13;;;20.78;100.00
54308;BME280;40208;39.778;2.710;2023-04-20T13:51:06;100513.56;;;20.24;100.00
54308;BME280;40208;39.778;2.710;2023-04-20T13:53:51;100634.34;;;20.90;100.00
54308;BME280;40208;39.778;2.710;2023-04-20T13:56:36;100420.03;;;19.55;100.00
54308;BME280;40208;39.778;2.710;2023-04-20T13:59:21;100475.22;;;19.91;100.00
54308;BME280;40208;39.778;2.710;2023-04-20T14:02:07;100617.09;;;20.62;100.00
54308;BME280;40208;39.778;2.710;2023-04-20T14:04:52;100596.25;;;20.64;100.00
54308;BME280;40208;39.778;2.710;2023-04-20T14:07:38;100655.94;;;21.00;100.00
54308;BME280;40208;39.778;2.710;2023-04-20T14:10:22;100645.16;;;21.00;99.22
54308;BME280;40208;39.778;2.710;2023-04-20T14:13:07;100619.88;;;21.10;94.19
54308;BME280;40208;39.778;2.710;2023-04-20T14:15:53;100609.09;;;21.20;85.28
54308;BME280;40208;39.778;2.710;2023-04-20T14:18:38;100461.09;;;20.47;84.58